sensor_id;sensor_type;location;lat;lon;timestamp;P1;durP1;ratioP1;P2;durP2;ratioP2
16577;SDS011;8401;52.528;13.340;2023-02-01T00:02:05;17.17;;;4.20;;
16577;SDS011;8401;52.528;13.340;2023-02-01T00:04:31;20.47;;;3.63;;
16577;SDS011;8401;52.528;13.340;2023-02-01T00:06:57;16.10;;;4.47;;
16577;SDS011;8401;52.528;13.340;2023-02-01T00:09:22;17.93;;;4.07;;
16577;SDS011;8401;52.528;13.340;2023-02-01T00:11:48;17.53;;;3.53;;
16577;SDS011;8401;52.528;13.340;2023-02-01T00:14:14;13.07;;;3.57;;
16577;SDS011;8401;52.528;13.340;2023-02-01T00:16:39;15.27;;;3.53;;
16577;SDS011;8401;52.528;13.340;2023-02-01T00:19:09;15.97;;;3.67;;
16577;SDS011;8401;52.528;13.340;2023-02-01T00:21:37;14.13;;;3.63;;
16577;SDS011;8401;52.528;13.340;2023-02-01T00:24:03;14.00;;;3.07;;
16577;SDS011;8401;52.528;13.340;2023-02-01T00:26:43;19.57;;;3.67;;
16577;SDS011;8401;52.528;13.340;2023-02-01T00:29:11;13.80;;;3.87;;
16577;SDS011;8401;52.528;13.340;2023-02-01T00:31:38;14.50;;;3.17;;
16577;SDS011;8401;52.528;13.340;2023-02-01T00:34:04;9.47;;;3.23;;
16577;SDS011;8401;52.528;13.340;2023-02-01T00:36:30;12.43;;;3.83;;
16577;SDS011;8401;52.528;13.340;2023-02-01T00:38:56;14.80;;;3.93;;
16577;SDS011;8401;52.528;13.340;2023-02-01T00:41:22;16.37;;;3.83;;
16577;SDS011;8401;52.528;13.340;2023-02-01T00:43:49;8.87;;;2.67;;
16577;SDS011;8401;52.528;13.340;2023-02-01T00:46:15;16.20;;;2.90;;
16577;SDS011;8401;52.528;13.340;2023-02-01T00:48:42;9.57;;;2.83;;
16577;SDS011;8401;52.528;13.340;2023-02-01T00:51:09;13.43;;;3.17;;
16577;SDS011;8401;52.528;13.340;2023-02-01T00:53:39;12.43;;;2.43;;
16577;SDS011;8401;52.528;13.340;2023-02-01T00:56:05;11.07;;;2.40;;
16577;SDS011;8401;52.528;13.340;2023-02-01T00:58:31;12.53;;;2.87;;
16577;SDS011;8401;52.528;13.340;2023-02-01T01:01:11;10.70;;;3.03;;
16577;SDS011;8401;52.528;13.340;2023-02-01T01:03:38;13.50;;;2.73;;
16577;SDS011;8401;52.528;13.340;2023-02-01T01:06:11;11.53;;;2.23;;
16577;SDS011;8401;52.528;13.340;2023-02-01T01:08:39;12.50;;;2.63;;
16577;SDS011;8401;52.528;13.340;2023-02-01T01:11:09;15.30;;;3.37;;
16577;SDS011;8401;52.528;13.340;2023-02-01T01:13:38;13.47;;;2.90;;
16577;SDS011;8401;52.528;13.340;2023-02-01T01:16:05;8.07;;;2.00;;
16577;SDS011;8401;52.528;13.340;2023-02-01T01:18:32;12.47;;;2.53;;
16577;SDS011;8401;52.528;13.340;2023-02-01T01:20:59;9.90;;;2.90;;
16577;SDS011;8401;52.528;13.340;2023-02-01T01:23:25;15.17;;;2.73;;
16577;SDS011;8401;52.528;13.340;2023-02-01T01:25:52;8.23;;;2.40;;
16577;SDS011;8401;52.528;13.340;2023-02-01T01:28:18;10.03;;;3.33;;
16577;SDS011;8401;52.528;13.340;2023-02-01T01:30:43;15.17;;;2.67;;
16577;SDS011;8401;52.528;13.340;2023-02-01T01:33:09;16.30;;;2.80;;
16577;SDS011;8401;52.528;13.340;2023-02-01T01:35:35;11.23;;;2.40;;
16577;SDS011;8401;52.528;13.340;2023-02-01T01:38:01;7.80;;;2.17;;
16577;SDS011;8401;52.528;13.340;2023-02-01T01:40:28;9.03;;;2.43;;
16577;SDS011;8401;52.528;13.340;2023-02-01T01:42:54;8.50;;;2.53;;
16577;SDS011;8401;52.528;13.340;2023-02-01T01:45:25;11.13;;;2.63;;
16577;SDS011;8401;52.528;13.340;2023-02-01T01:48:04;9.73;;;2.60;;
16577;SDS011;8401;52.528;13.340;2023-02-01T01:50:37;9.00;;;2.40;;
16577;SDS011;8401;52.528;13.340;2023-02-01T01:53:08;12.40;;;2.67;;
16577;SDS011;8401;52.528;13.340;2023-02-01T01:55:37;13.10;;;2.63;;
16577;SDS011;8401;52.528;13.340;2023-02-01T01:58:08;15.37;;;2.60;;
16577;SDS011;8401;52.528;13.340;2023-02-01T02:00:37;11.47;;;2.97;;
16577;SDS011;8401;52.528;13.340;2023-02-01T02:03:07;8.57;;;2.47;;
16577;SDS011;8401;52.528;13.340;2023-02-01T02:05:38;11.23;;;2.37;;
16577;SDS011;8401;52.528;13.340;2023-02-01T02:08:04;16.23;;;3.80;;
16577;SDS011;8401;52.528;13.340;2023-02-01T02:10:30;9.97;;;2.50;;
16577;SDS011;8401;52.528;13.340;2023-02-01T02:13:15;8.77;;;3.13;;
16577;SDS011;8401;52.528;13.340;2023-02-01T02:15:58;15.53;;;2.73;;
16577;SDS011;8401;52.528;13.340;2023-02-01T02:18:44;14.30;;;2.57;;
16577;SDS011;8401;52.528;13.340;2023-02-01T02:32:52;11.87;;;3.27;;
16577;SDS011;8401;52.528;13.340;2023-02-01T02:44:31;10.50;;;2.33;;
16577;SDS011;8401;52.528;13.340;2023-02-01T02:47:56;14.77;;;2.93;;
16577;SDS011;8401;52.528;13.340;2023-02-01T02:50:32;13.83;;;3.07;;
16577;SDS011;8401;52.528;13.340;2023-02-01T02:53:57;10.77;;;2.87;;
16577;SDS011;8401;52.528;13.340;2023-02-01T02:56:48;14.20;;;3.07;;
16577;SDS011;8401;52.528;13.340;2023-02-01T02:59:34;17.77;;;3.00;;
16577;SDS011;8401;52.528;13.340;2023-02-01T03:02:20;13.57;;;3.23;;
16577;SDS011;8401;52.528;13.340;2023-02-01T03:05:05;15.23;;;3.40;;
16577;SDS011;8401;52.528;13.340;2023-02-01T03:16:33;12.97;;;2.97;;
16577;SDS011;8401;52.528;13.340;2023-02-01T03:18:44;11.77;;;3.27;;
16577;SDS011;8401;52.528;13.340;2023-02-01T03:21:13;12.73;;;2.80;;
16577;SDS011;8401;52.528;13.340;2023-02-01T03:23:44;11.53;;;2.83;;
16577;SDS011;8401;52.528;13.340;2023-02-01T03:26:12;10.33;;;2.30;;
16577;SDS011;8401;52.528;13.340;2023-02-01T03:28:47;18.83;;;3.37;;
16577;SDS011;8401;52.528;13.340;2023-02-01T03:31:19;10.73;;;2.37;;
16577;SDS011;8401;52.528;13.340;2023-02-01T03:33:45;14.07;;;2.93;;
16577;SDS011;8401;52.528;13.340;2023-02-01T03:36:20;17.63;;;2.90;;
16577;SDS011;8401;52.528;13.340;2023-02-01T03:39:04;16.33;;;4.10;;
16577;SDS011;8401;52.528;13.340;2023-02-01T03:41:51;13.83;;;2.90;;
16577;SDS011;8401;52.528;13.340;2023-02-01T03:44:22;14.87;;;3.00;;
16577;SDS011;8401;52.528;13.340;2023-02-01T03:47:03;12.33;;;2.70;;
16577;SDS011;8401;52.528;13.340;2023-02-01T03:49:38;16.27;;;3.03;;
16577;SDS011;8401;52.528;13.340;2023-02-01T03:52:09;13.63;;;3.30;;
16577;SDS011;8401;52.528;13.340;2023-02-01T03:54:39;12.20;;;3.03;;
16577;SDS011;8401;52.528;13.340;2023-02-01T03:57:07;14.90;;;3.03;;
16577;SDS011;8401;52.528;13.340;2023-02-01T03:59:43;12.33;;;4.00;;
16577;SDS011;8401;52.528;13.340;2023-02-01T04:02:10;16.20;;;3.37;;
16577;SDS011;8401;52.528;13.340;2023-02-01T04:04:36;16.20;;;3.70;;
16577;SDS011;8401;52.528;13.340;2023-02-01T04:07:02;10.47;;;2.80;;
16577;SDS011;8401;52.528;13.340;2023-02-01T04:09:28;12.03;;;2.57;;
16577;SDS011;8401;52.528;13.340;2023-02-01T04:11:54;11.70;;;3.73;;
16577;SDS011;8401;52.528;13.340;2023-02-01T04:14:19;17.03;;;3.53;;
16577;SDS011;8401;52.528;13.340;2023-02-01T04:16:45;7.93;;;2.30;;
16577;SDS011;8401;52.528;13.340;2023-02-01T04:19:11;14.80;;;3.20;;
16577;SDS011;8401;52.528;13.340;2023-02-01T04:21:36;20.23;;;4.07;;
16577;SDS011;8401;52.528;13.340;2023-02-01T04:24:02;16.60;;;3.03;;
16577;SDS011;8401;52.528;13.340;2023-02-01T04:26:28;13.93;;;3.03;;
16577;SDS011;8401;52.528;13.340;2023-02-01T04:28:54;15.43;;;3.23;;
16577;SDS011;8401;52.528;13.340;2023-02-01T04:31:19;13.57;;;3.77;;
16577;SDS011;8401;52.528;13.340;2023-02-01T04:33:53;14.03;;;3.83;;
16577;SDS011;8401;52.528;13.340;2023-02-01T04:36:20;12.93;;;3.87;;
16577;SDS011;8401;52.528;13.340;2023-02-01T04:38:47;15.27;;;2.83;;
16577;SDS011;8401;52.528;13.340;2023-02-01T04:41:16;12.30;;;3.00;;
16577;SDS011;8401;52.528;13.340;2023-02-01T04:43:48;11.67;;;3.13;;
16577;SDS011;8401;52.528;13.340;2023-02-01T04:46:15;15.67;;;3.60;;
16577;SDS011;8401;52.528;13.340;2023-02-01T04:48:41;16.10;;;2.97;;
16577;SDS011;8401;52.528;13.340;2023-02-01T04:51:07;12.33;;;3.10;;
16577;SDS011;8401;52.528;13.340;2023-02-01T04:53:33;19.17;;;3.80;;
16577;SDS011;8401;52.528;13.340;2023-02-01T04:55:59;14.07;;;3.40;;
16577;SDS011;8401;52.528;13.340;2023-02-01T04:58:24;14.17;;;2.87;;
16577;SDS011;8401;52.528;13.340;2023-02-01T05:00:50;9.60;;;2.60;;
16577;SDS011;8401;52.528;13.340;2023-02-01T05:03:16;16.53;;;3.50;;
16577;SDS011;8401;52.528;13.340;2023-02-01T05:05:42;12.90;;;3.67;;
16577;SDS011;8401;52.528;13.340;2023-02-01T05:08:08;17.03;;;3.43;;
16577;SDS011;8401;52.528;13.340;2023-02-01T05:10:34;12.23;;;3.20;;
16577;SDS011;8401;52.528;13.340;2023-02-01T05:12:59;13.37;;;2.80;;
16577;SDS011;8401;52.528;13.340;2023-02-01T05:15:43;13.73;;;3.20;;
16577;SDS011;8401;52.528;13.340;2023-02-01T05:18:11;20.73;;;4.40;;
16577;SDS011;8401;52.528;13.340;2023-02-01T05:20:37;18.70;;;3.10;;
16577;SDS011;8401;52.528;13.340;2023-02-01T05:23:02;19.70;;;3.93;;
16577;SDS011;8401;52.528;13.340;2023-02-01T05:25:28;16.40;;;3.43;;
16577;SDS011;8401;52.528;13.340;2023-02-01T05:27:53;15.07;;;3.23;;
16577;SDS011;8401;52.528;13.340;2023-02-01T05:30:19;11.77;;;3.23;;
16577;SDS011;8401;52.528;13.340;2023-02-01T05:32:45;13.73;;;3.20;;
16577;SDS011;8401;52.528;13.340;2023-02-01T05:35:13;9.20;;;2.73;;
16577;SDS011;8401;52.528;13.340;2023-02-01T05:37:39;15.53;;;3.97;;
16577;SDS011;8401;52.528;13.340;2023-02-01T05:40:05;16.20;;;2.77;;
16577;SDS011;8401;52.528;13.340;2023-02-01T05:42:31;13.17;;;3.40;;
16577;SDS011;8401;52.528;13.340;2023-02-01T05:44:56;15.83;;;2.67;;
16577;SDS011;8401;52.528;13.340;2023-02-01T05:47:22;15.27;;;3.77;;
16577;SDS011;8401;52.528;13.340;2023-02-01T05:49:48;17.97;;;3.37;;
16577;SDS011;8401;52.528;13.340;2023-02-01T05:52:13;17.57;;;3.50;;
16577;SDS011;8401;52.528;13.340;2023-02-01T05:54:44;16.23;;;3.97;;
16577;SDS011;8401;52.528;13.340;2023-02-01T05:57:10;14.13;;;3.57;;
16577;SDS011;8401;52.528;13.340;2023-02-01T05:59:37;16.07;;;3.83;;
16577;SDS011;8401;52.528;13.340;2023-02-01T06:02:06;12.70;;;4.03;;
16577;SDS011;8401;52.528;13.340;2023-02-01T06:04:32;9.97;;;2.77;;
16577;SDS011;8401;52.528;13.340;2023-02-01T06:06:58;19.43;;;3.27;;
16577;SDS011;8401;52.528;13.340;2023-02-01T06:09:23;19.60;;;4.47;;
16577;SDS011;8401;52.528;13.340;2023-02-01T06:11:49;17.40;;;3.93;;
16577;SDS011;8401;52.528;13.340;2023-02-01T06:14:14;15.20;;;3.37;;
16577;SDS011;8401;52.528;13.340;2023-02-01T06:16:40;14.80;;;3.80;;
16577;SDS011;8401;52.528;13.340;2023-02-01T06:19:06;15.43;;;3.37;;
16577;SDS011;8401;52.528;13.340;2023-02-01T06:21:31;15.87;;;3.70;;
16577;SDS011;8401;52.528;13.340;2023-02-01T06:23:58;13.10;;;3.47;;
16577;SDS011;8401;52.528;13.340;2023-02-01T06:26:24;15.10;;;3.67;;
16577;SDS011;8401;52.528;13.340;2023-02-01T06:28:49;14.27;;;3.57;;
16577;SDS011;8401;52.528;13.340;2023-02-01T06:31:15;16.07;;;3.17;;
16577;SDS011;8401;52.528;13.340;2023-02-01T06:33:41;15.33;;;3.83;;
16577;SDS011;8401;52.528;13.340;2023-02-01T06:36:07;11.87;;;3.67;;
16577;SDS011;8401;52.528;13.340;2023-02-01T06:38:34;17.47;;;4.57;;
16577;SDS011;8401;52.528;13.340;2023-02-01T06:41:00;14.83;;;3.70;;
16577;SDS011;8401;52.528;13.340;2023-02-01T06:43:27;12.23;;;3.40;;
16577;SDS011;8401;52.528;13.340;2023-02-01T06:45:53;18.70;;;4.17;;
16577;SDS011;8401;52.528;13.340;2023-02-01T06:48:24;15.93;;;3.63;;
16577;SDS011;8401;52.528;13.340;2023-02-01T06:50:49;8.73;;;3.33;;
16577;SDS011;8401;52.528;13.340;2023-02-01T06:53:15;10.47;;;3.47;;
16577;SDS011;8401;52.528;13.340;2023-02-01T06:55:41;12.60;;;3.53;;
16577;SDS011;8401;52.528;13.340;2023-02-01T06:58:15;14.70;;;3.50;;
16577;SDS011;8401;52.528;13.340;2023-02-01T07:00:41;10.47;;;3.30;;
16577;SDS011;8401;52.528;13.340;2023-02-01T07:03:06;26.03;;;4.47;;
16577;SDS011;8401;52.528;13.340;2023-02-01T07:05:32;11.43;;;2.93;;
16577;SDS011;8401;52.528;13.340;2023-02-01T07:07:58;18.70;;;4.00;;
16577;SDS011;8401;52.528;13.340;2023-02-01T07:10:23;13.87;;;2.97;;
16577;SDS011;8401;52.528;13.340;2023-02-01T07:12:49;14.00;;;3.37;;
16577;SDS011;8401;52.528;13.340;2023-02-01T07:15:15;9.60;;;2.30;;
16577;SDS011;8401;52.528;13.340;2023-02-01T07:17:40;14.73;;;3.57;;
16577;SDS011;8401;52.528;13.340;2023-02-01T07:20:06;14.33;;;3.40;;
16577;SDS011;8401;52.528;13.340;2023-02-01T07:22:32;17.47;;;3.97;;
16577;SDS011;8401;52.528;13.340;2023-02-01T07:24:58;10.93;;;3.27;;
16577;SDS011;8401;52.528;13.340;2023-02-01T07:27:24;10.77;;;3.30;;
16577;SDS011;8401;52.528;13.340;2023-02-01T07:29:50;10.80;;;3.60;;
16577;SDS011;8401;52.528;13.340;2023-02-01T07:32:16;9.73;;;3.03;;
16577;SDS011;8401;52.528;13.340;2023-02-01T07:34:43;15.87;;;4.00;;
16577;SDS011;8401;52.528;13.340;2023-02-01T07:37:09;16.70;;;4.37;;
16577;SDS011;8401;52.528;13.340;2023-02-01T07:39:35;14.37;;;3.27;;
16577;SDS011;8401;52.528;13.340;2023-02-01T07:42:00;8.30;;;3.10;;
16577;SDS011;8401;52.528;13.340;2023-02-01T07:44:26;17.80;;;4.40;;
16577;SDS011;8401;52.528;13.340;2023-02-01T07:46:52;11.47;;;3.53;;
16577;SDS011;8401;52.528;13.340;2023-02-01T07:49:18;11.57;;;3.87;;
16577;SDS011;8401;52.528;13.340;2023-02-01T07:51:43;11.27;;;3.80;;
16577;SDS011;8401;52.528;13.340;2023-02-01T07:54:09;19.37;;;3.77;;
16577;SDS011;8401;52.528;13.340;2023-02-01T07:56:35;17.73;;;3.50;;
16577;SDS011;8401;52.528;13.340;2023-02-01T07:59:01;13.93;;;3.40;;
16577;SDS011;8401;52.528;13.340;2023-02-01T08:01:27;14.27;;;3.83;;
16577;SDS011;8401;52.528;13.340;2023-02-01T08:03:54;10.60;;;3.13;;
16577;SDS011;8401;52.528;13.340;2023-02-01T08:06:24;15.00;;;4.60;;
16577;SDS011;8401;52.528;13.340;2023-02-01T08:08:51;9.07;;;3.07;;
16577;SDS011;8401;52.528;13.340;2023-02-01T08:11:18;10.93;;;3.70;;
16577;SDS011;8401;52.528;13.340;2023-02-01T08:13:45;11.20;;;4.10;;
16577;SDS011;8401;52.528;13.340;2023-02-01T08:16:11;11.97;;;3.90;;
16577;SDS011;8401;52.528;13.340;2023-02-01T08:18:38;11.93;;;3.13;;
16577;SDS011;8401;52.528;13.340;2023-02-01T08:21:05;12.00;;;4.10;;
16577;SDS011;8401;52.528;13.340;2023-02-01T08:23:33;16.57;;;3.73;;
16577;SDS011;8401;52.528;13.340;2023-02-01T08:26:04;17.47;;;4.30;;
16577;SDS011;8401;52.528;13.340;2023-02-01T08:28:31;9.60;;;3.40;;
16577;SDS011;8401;52.528;13.340;2023-02-01T08:30:57;14.50;;;3.23;;
16577;SDS011;8401;52.528;13.340;2023-02-01T08:33:22;6.67;;;2.87;;
16577;SDS011;8401;52.528;13.340;2023-02-01T08:35:48;7.80;;;3.83;;
16577;SDS011;8401;52.528;13.340;2023-02-01T08:38:13;10.37;;;3.50;;
16577;SDS011;8401;52.528;13.340;2023-02-01T08:40:39;11.80;;;4.50;;
16577;SDS011;8401;52.528;13.340;2023-02-01T08:43:06;10.97;;;4.33;;
16577;SDS011;8401;52.528;13.340;2023-02-01T08:45:32;8.73;;;4.07;;
16577;SDS011;8401;52.528;13.340;2023-02-01T08:47:58;13.53;;;4.70;;
16577;SDS011;8401;52.528;13.340;2023-02-01T08:50:24;8.60;;;3.60;;
16577;SDS011;8401;52.528;13.340;2023-02-01T08:52:50;8.93;;;4.43;;
16577;SDS011;8401;52.528;13.340;2023-02-01T08:55:17;10.63;;;3.37;;
16577;SDS011;8401;52.528;13.340;2023-02-01T08:57:43;8.03;;;3.33;;
16577;SDS011;8401;52.528;13.340;2023-02-01T09:00:10;6.40;;;2.87;;
16577;SDS011;8401;52.528;13.340;2023-02-01T09:02:38;4.90;;;3.10;;
16577;SDS011;8401;52.528;13.340;2023-02-01T09:05:04;5.93;;;2.70;;
16577;SDS011;8401;52.528;13.340;2023-02-01T09:07:31;10.63;;;3.00;;
16577;SDS011;8401;52.528;13.340;2023-02-01T09:09:57;7.17;;;2.70;;
16577;SDS011;8401;52.528;13.340;2023-02-01T09:12:25;9.70;;;2.47;;
16577;SDS011;8401;52.528;13.340;2023-02-01T09:14:56;4.60;;;2.23;;
16577;SDS011;8401;52.528;13.340;2023-02-01T09:17:24;3.23;;;1.43;;
16577;SDS011;8401;52.528;13.340;2023-02-01T09:19:50;3.13;;;2.10;;
16577;SDS011;8401;52.528;13.340;2023-02-01T09:22:16;4.50;;;1.93;;
16577;SDS011;8401;52.528;13.340;2023-02-01T09:24:42;3.67;;;1.57;;
16577;SDS011;8401;52.528;13.340;2023-02-01T09:27:07;4.27;;;1.87;;
16577;SDS011;8401;52.528;13.340;2023-02-01T09:29:33;2.83;;;1.40;;
16577;SDS011;8401;52.528;13.340;2023-02-01T09:31:59;6.17;;;1.50;;
16577;SDS011;8401;52.528;13.340;2023-02-01T09:34:25;4.07;;;1.60;;
16577;SDS011;8401;52.528;13.340;2023-02-01T09:36:50;4.57;;;1.80;;
16577;SDS011;8401;52.528;13.340;2023-02-01T09:39:16;2.93;;;1.13;;
16577;SDS011;8401;52.528;13.340;2023-02-01T09:44:37;2.70;;;1.20;;
16577;SDS011;8401;52.528;13.340;2023-02-01T09:47:15;5.60;;;1.33;;
16577;SDS011;8401;52.528;13.340;2023-02-01T09:49:54;2.77;;;1.33;;
16577;SDS011;8401;52.528;13.340;2023-02-01T09:52:31;5.47;;;1.53;;
16577;SDS011;8401;52.528;13.340;2023-02-01T10:00:53;2.33;;;1.30;;
16577;SDS011;8401;52.528;13.340;2023-02-01T10:03:23;3.27;;;1.17;;
16577;SDS011;8401;52.528;13.340;2023-02-01T10:14:44;4.60;;;1.60;;
16577;SDS011;8401;52.528;13.340;2023-02-01T10:20:25;4.27;;;2.23;;
16577;SDS011;8401;52.528;13.340;2023-02-01T10:23:58;3.20;;;1.60;;
16577;SDS011;8401;52.528;13.340;2023-02-01T10:26:20;3.70;;;1.40;;
16577;SDS011;8401;52.528;13.340;2023-02-01T10:28:52;3.40;;;1.30;;
16577;SDS011;8401;52.528;13.340;2023-02-01T10:31:25;5.33;;;1.60;;
16577;SDS011;8401;52.528;13.340;2023-02-01T10:33:57;3.70;;;1.80;;
16577;SDS011;8401;52.528;13.340;2023-02-01T10:36:29;6.57;;;2.47;;
16577;SDS011;8401;52.528;13.340;2023-02-01T10:39:00;4.80;;;1.70;;
16577;SDS011;8401;52.528;13.340;2023-02-01T10:41:33;10.60;;;2.10;;
16577;SDS011;8401;52.528;13.340;2023-02-01T10:44:02;10.67;;;1.80;;
16577;SDS011;8401;52.528;13.340;2023-02-01T10:46:30;4.13;;;1.70;;
16577;SDS011;8401;52.528;13.340;2023-02-01T10:48:56;5.17;;;1.60;;
16577;SDS011;8401;52.528;13.340;2023-02-01T10:51:30;3.50;;;1.53;;
16577;SDS011;8401;52.528;13.340;2023-02-01T10:54:31;4.27;;;1.10;;
16577;SDS011;8401;52.528;13.340;2023-02-01T10:57:03;4.23;;;1.60;;
16577;SDS011;8401;52.528;13.340;2023-02-01T10:59:36;3.57;;;1.33;;
16577;SDS011;8401;52.528;13.340;2023-02-01T11:04:58;6.13;;;2.20;;
16577;SDS011;8401;52.528;13.340;2023-02-01T11:07:46;7.67;;;2.30;;
16577;SDS011;8401;52.528;13.340;2023-02-01T11:10:35;6.43;;;1.97;;
16577;SDS011;8401;52.528;13.340;2023-02-01T11:13:02;4.73;;;1.60;;
16577;SDS011;8401;52.528;13.340;2023-02-01T11:15:29;5.97;;;1.40;;
16577;SDS011;8401;52.528;13.340;2023-02-01T11:17:55;6.03;;;1.83;;
16577;SDS011;8401;52.528;13.340;2023-02-01T11:23:05;4.47;;;2.17;;
16577;SDS011;8401;52.528;13.340;2023-02-01T11:25:47;7.50;;;1.83;;
16577;SDS011;8401;52.528;13.340;2023-02-01T11:28:39;6.20;;;1.97;;
16577;SDS011;8401;52.528;13.340;2023-02-01T11:31:11;5.37;;;1.87;;
16577;SDS011;8401;52.528;13.340;2023-02-01T11:33:39;7.60;;;1.60;;
16577;SDS011;8401;52.528;13.340;2023-02-01T11:36:13;9.43;;;1.80;;
16577;SDS011;8401;52.528;13.340;2023-02-01T11:38:45;6.70;;;1.87;;
16577;SDS011;8401;52.528;13.340;2023-02-01T11:41:31;7.60;;;2.30;;
16577;SDS011;8401;52.528;13.340;2023-02-01T11:43:58;6.87;;;1.90;;
16577;SDS011;8401;52.528;13.340;2023-02-01T11:46:40;5.87;;;1.80;;
16577;SDS011;8401;52.528;13.340;2023-02-01T11:49:20;5.37;;;1.80;;
16577;SDS011;8401;52.528;13.340;2023-02-01T12:03:45;6.33;;;1.77;;
16577;SDS011;8401;52.528;13.340;2023-02-01T12:06:29;6.23;;;1.77;;
16577;SDS011;8401;52.528;13.340;2023-02-01T12:18:27;5.30;;;1.47;;
16577;SDS011;8401;52.528;13.340;2023-02-01T12:21:06;6.83;;;2.13;;
16577;SDS011;8401;52.528;13.340;2023-02-01T12:29:15;7.40;;;2.43;;
16577;SDS011;8401;52.528;13.340;2023-02-01T12:40:31;6.87;;;2.17;;
16577;SDS011;8401;52.528;13.340;2023-02-01T12:45:57;9.17;;;2.33;;
16577;SDS011;8401;52.528;13.340;2023-02-01T12:50:57;4.83;;;1.47;;
16577;SDS011;8401;52.528;13.340;2023-02-01T12:56:11;9.47;;;1.90;;
16577;SDS011;8401;52.528;13.340;2023-02-01T12:58:51;8.27;;;2.17;;
16577;SDS011;8401;52.528;13.340;2023-02-01T13:01:30;6.23;;;1.63;;
16577;SDS011;8401;52.528;13.340;2023-02-01T13:07:00;8.17;;;1.67;;
16577;SDS011;8401;52.528;13.340;2023-02-01T13:09:55;6.27;;;2.20;;
16577;SDS011;8401;52.528;13.340;2023-02-01T13:12:34;5.13;;;1.77;;
16577;SDS011;8401;52.528;13.340;2023-02-01T13:16:10;4.33;;;1.97;;
16577;SDS011;8401;52.528;13.340;2023-02-01T13:18:05;7.57;;;1.87;;
16577;SDS011;8401;52.528;13.340;2023-02-01T13:20:45;7.20;;;2.27;;
16577;SDS011;8401;52.528;13.340;2023-02-01T13:23:27;4.57;;;2.30;;
16577;SDS011;8401;52.528;13.340;2023-02-01T13:25:55;5.73;;;1.90;;
16577;SDS011;8401;52.528;13.340;2023-02-01T13:28:28;5.53;;;2.00;;
16577;SDS011;8401;52.528;13.340;2023-02-01T13:34:09;10.27;;;2.60;;
16577;SDS011;8401;52.528;13.340;2023-02-01T13:45:16;7.03;;;1.60;;
16577;SDS011;8401;52.528;13.340;2023-02-01T13:47:46;5.57;;;1.93;;
16577;SDS011;8401;52.528;13.340;2023-02-01T13:50:22;10.23;;;2.30;;
16577;SDS011;8401;52.528;13.340;2023-02-01T13:56:03;6.53;;;2.00;;
16577;SDS011;8401;52.528;13.340;2023-02-01T13:58:42;9.03;;;1.90;;
16577;SDS011;8401;52.528;13.340;2023-02-01T14:06:34;8.43;;;1.90;;
16577;SDS011;8401;52.528;13.340;2023-02-01T14:16:41;9.73;;;2.83;;
16577;SDS011;8401;52.528;13.340;2023-02-01T14:19:08;7.27;;;2.00;;
16577;SDS011;8401;52.528;13.340;2023-02-01T14:21:49;6.23;;;2.77;;
16577;SDS011;8401;52.528;13.340;2023-02-01T14:24:27;7.43;;;3.23;;
16577;SDS011;8401;52.528;13.340;2023-02-01T14:26:56;9.93;;;2.90;;
16577;SDS011;8401;52.528;13.340;2023-02-01T14:29:31;10.70;;;3.50;;
16577;SDS011;8401;52.528;13.340;2023-02-01T15:00:52;7.43;;;2.70;;
16577;SDS011;8401;52.528;13.340;2023-02-01T15:06:03;10.23;;;2.60;;
16577;SDS011;8401;52.528;13.340;2023-02-01T15:08:32;10.90;;;2.70;;
16577;SDS011;8401;52.528;13.340;2023-02-01T15:11:01;9.23;;;2.67;;
16577;SDS011;8401;52.528;13.340;2023-02-01T15:13:31;6.60;;;2.10;;
16577;SDS011;8401;52.528;13.340;2023-02-01T15:18:33;5.97;;;2.17;;
16577;SDS011;8401;52.528;13.340;2023-02-01T15:21:00;6.17;;;1.87;;
16577;SDS011;8401;52.528;13.340;2023-02-01T15:23:26;12.27;;;1.90;;
16577;SDS011;8401;52.528;13.340;2023-02-01T15:25:53;5.77;;;1.80;;
16577;SDS011;8401;52.528;13.340;2023-02-01T15:28:18;3.37;;;1.67;;
16577;SDS011;8401;52.528;13.340;2023-02-01T15:31:30;5.37;;;1.80;;
16577;SDS011;8401;52.528;13.340;2023-02-01T15:33:36;5.50;;;2.30;;
16577;SDS011;8401;52.528;13.340;2023-02-01T15:38:35;3.97;;;1.13;;
16577;SDS011;8401;52.528;13.340;2023-02-01T15:46:25;2.20;;;1.60;;
16577;SDS011;8401;52.528;13.340;2023-02-01T15:49:01;1.43;;;0.83;;
16577;SDS011;8401;52.528;13.340;2023-02-01T15:51:28;2.23;;;0.83;;
16577;SDS011;8401;52.528;13.340;2023-02-01T15:54:01;2.87;;;1.27;;
16577;SDS011;8401;52.528;13.340;2023-02-01T15:56:33;2.63;;;1.17;;
16577;SDS011;8401;52.528;13.340;2023-02-01T15:59:01;4.30;;;0.97;;
16577;SDS011;8401;52.528;13.340;2023-02-01T16:01:39;2.07;;;1.10;;
16577;SDS011;8401;52.528;13.340;2023-02-01T16:06:44;1.07;;;0.80;;
16577;SDS011;8401;52.528;13.340;2023-02-01T16:09:15;0.73;;;0.50;;
16577;SDS011;8401;52.528;13.340;2023-02-01T16:14:14;1.57;;;0.70;;
16577;SDS011;8401;52.528;13.340;2023-02-01T16:16:41;1.10;;;0.50;;
16577;SDS011;8401;52.528;13.340;2023-02-01T16:19:07;1.47;;;0.93;;
16577;SDS011;8401;52.528;13.340;2023-02-01T16:21:32;1.47;;;0.60;;
16577;SDS011;8401;52.528;13.340;2023-02-01T16:23:58;1.53;;;0.63;;
16577;SDS011;8401;52.528;13.340;2023-02-01T16:26:28;1.80;;;0.67;;
16577;SDS011;8401;52.528;13.340;2023-02-01T16:28:56;1.57;;;0.70;;
16577;SDS011;8401;52.528;13.340;2023-02-01T16:31:25;1.53;;;1.10;;
16577;SDS011;8401;52.528;13.340;2023-02-01T16:33:54;3.63;;;2.17;;
16577;SDS011;8401;52.528;13.340;2023-02-01T16:36:20;4.67;;;3.80;;
16577;SDS011;8401;52.528;13.340;2023-02-01T16:38:46;3.57;;;2.87;;
16577;SDS011;8401;52.528;13.340;2023-02-01T16:41:14;1.57;;;1.40;;
16577;SDS011;8401;52.528;13.340;2023-02-01T16:43:41;1.57;;;1.10;;
16577;SDS011;8401;52.528;13.340;2023-02-01T16:46:12;2.03;;;1.00;;
16577;SDS011;8401;52.528;13.340;2023-02-01T16:48:45;1.33;;;0.83;;
16577;SDS011;8401;52.528;13.340;2023-02-01T16:51:15;2.60;;;0.60;;
16577;SDS011;8401;52.528;13.340;2023-02-01T16:53:41;1.30;;;0.67;;
16577;SDS011;8401;52.528;13.340;2023-02-01T16:56:12;1.47;;;1.13;;
16577;SDS011;8401;52.528;13.340;2023-02-01T16:58:43;3.23;;;1.00;;
16577;SDS011;8401;52.528;13.340;2023-02-01T17:01:12;3.80;;;0.80;;
16577;SDS011;8401;52.528;13.340;2023-02-01T17:03:39;2.47;;;0.80;;
16577;SDS011;8401;52.528;13.340;2023-02-01T17:06:06;2.97;;;0.80;;
16577;SDS011;8401;52.528;13.340;2023-02-01T17:08:35;2.00;;;1.10;;
16577;SDS011;8401;52.528;13.340;2023-02-01T17:11:02;1.97;;;0.73;;
16577;SDS011;8401;52.528;13.340;2023-02-01T17:13:29;2.97;;;0.90;;
16577;SDS011;8401;52.528;13.340;2023-02-01T17:15:59;2.43;;;1.43;;
16577;SDS011;8401;52.528;13.340;2023-02-01T17:18:28;1.10;;;0.97;;
16577;SDS011;8401;52.528;13.340;2023-02-01T17:20:58;4.93;;;1.33;;
16577;SDS011;8401;52.528;13.340;2023-02-01T17:23:25;3.63;;;1.47;;
16577;SDS011;8401;52.528;13.340;2023-02-01T17:25:51;5.77;;;3.60;;
16577;SDS011;8401;52.528;13.340;2023-02-01T17:28:17;3.80;;;1.53;;
16577;SDS011;8401;52.528;13.340;2023-02-01T17:30:43;8.90;;;1.83;;
16577;SDS011;8401;52.528;13.340;2023-02-01T17:33:43;3.80;;;1.70;;
16577;SDS011;8401;52.528;13.340;2023-02-01T17:36:02;6.17;;;1.47;;
16577;SDS011;8401;52.528;13.340;2023-02-01T17:38:30;4.63;;;1.10;;
16577;SDS011;8401;52.528;13.340;2023-02-01T17:40:56;3.60;;;1.30;;
16577;SDS011;8401;52.528;13.340;2023-02-01T17:43:23;2.97;;;1.17;;
16577;SDS011;8401;52.528;13.340;2023-02-01T17:45:54;9.53;;;1.40;;
16577;SDS011;8401;52.528;13.340;2023-02-01T17:48:26;5.87;;;1.40;;
16577;SDS011;8401;52.528;13.340;2023-02-01T17:50:52;6.30;;;1.30;;
16577;SDS011;8401;52.528;13.340;2023-02-01T17:53:25;6.43;;;1.67;;
16577;SDS011;8401;52.528;13.340;2023-02-01T17:55:51;4.77;;;1.43;;